createdAt,value
2022-10-18T00:02:26.178Z,101260.75
2022-10-18T00:04:52.785Z,101264.19
2022-10-18T00:07:19.355Z,101274.72
2022-10-18T00:09:45.905Z,101259.03
2022-10-18T00:12:12.579Z,101265.66
2022-10-18T00:14:39.107Z,101257.63
2022-10-18T00:17:05.754Z,101252.03
2022-10-18T00:19:32.247Z,101259.13
2022-10-18T00:21:58.806Z,101235.03
2022-10-18T00:24:25.342Z,101251.75
2022-10-18T00:26:51.895Z,101254.94
2022-10-18T00:29:18.434Z,101259.31
2022-10-18T00:31:45.222Z,101257.72
2022-10-18T00:34:14.509Z,101256.53
2022-10-18T00:36:42.128Z,101254.63
2022-10-18T00:39:12.392Z,101247.56
2022-10-18T00:41:39.035Z,101253.94
2022-10-18T00:44:11.407Z,101261.25
2022-10-18T00:46:40.973Z,101251.00
2022-10-18T00:49:23.338Z,101255.47
2022-10-18T00:51:57.748Z,101254.63
2022-10-18T00:54:25.523Z,101232.75
2022-10-18T00:56:52.287Z,101239.69
2022-10-18T00:59:21.811Z,101235.41
2022-10-18T01:01:48.450Z,101217.13
2022-10-18T01:04:16.843Z,101239.03
2022-10-18T01:07:12.794Z,101243.03
2022-10-18T01:10:09.130Z,101233.84
2022-10-18T01:13:07.685Z,101220.75
2022-10-18T01:18:41.463Z,101224.94
2022-10-18T01:21:27.792Z,101224.50
2022-10-18T01:24:13.136Z,101229.84
2022-10-18T01:26:52.166Z,101226.41
2022-10-18T01:29:40.599Z,101224.97
2022-10-18T01:32:14.009Z,101234.72
2022-10-18T01:34:45.748Z,101226.88
2022-10-18T01:37:16.922Z,101217.13
2022-10-18T01:39:46.945Z,101220.91
2022-10-18T01:42:17.068Z,101235.59
2022-10-18T01:44:45.527Z,101212.19
2022-10-18T01:47:14.170Z,101234.91
2022-10-18T01:49:40.751Z,101225.16
2022-10-18T01:52:09.465Z,101209.97
2022-10-18T01:54:39.459Z,101217.91
2022-10-18T01:57:24.038Z,101197.88
2022-10-18T02:00:02.853Z,101207.03
2022-10-18T02:02:38.097Z,101212.38
2022-10-18T02:05:10.828Z,101213.34
2022-10-18T02:07:51.910Z,101198.31
2022-10-18T02:10:29.367Z,101188.91
2022-10-18T02:12:58.049Z,101200.91
2022-10-18T02:15:29.827Z,101203.38
2022-10-18T02:17:57.237Z,101188.72
2022-10-18T02:20:26.199Z,101185.34
2022-10-18T02:22:55.766Z,101203.38
2022-10-18T02:25:25.415Z,101210.75
2022-10-18T02:27:52.482Z,101204.53
2022-10-18T02:30:23.147Z,101201.84
2022-10-18T02:33:15.425Z,101195.56
2022-10-18T02:35:47.564Z,101180.78
2022-10-18T02:38:17.490Z,101186.03
2022-10-18T02:40:44.059Z,101183.91
2022-10-18T02:43:10.621Z,101162.47
2022-10-18T02:45:37.824Z,101172.16
2022-10-18T02:48:04.533Z,101166.44
2022-10-18T02:50:31.052Z,101194.34
2022-10-18T02:52:57.798Z,101176.25
2022-10-18T02:55:24.425Z,101169.09
2022-10-18T02:57:50.954Z,101170.41
2022-10-18T03:00:17.557Z,101170.41
2022-10-18T03:02:44.074Z,101180.56
2022-10-18T03:05:10.811Z,101183.16
2022-10-18T03:07:37.317Z,101182.22
2022-10-18T03:10:04.091Z,101192.81
2022-10-18T03:12:30.611Z,101170.53
2022-10-18T03:14:57.207Z,101200.06
2022-10-18T03:17:23.742Z,101215.16
2022-10-18T03:19:50.303Z,101226.88
2022-10-18T03:22:16.946Z,101234.22
2022-10-18T03:24:43.565Z,101240.59
2022-10-18T03:27:10.058Z,101249.56
2022-10-18T03:29:36.590Z,101263.00
2022-10-18T03:32:03.433Z,101283.63
2022-10-18T03:34:30.016Z,101289.81
2022-10-18T03:37:00.935Z,101263.97
2022-10-18T03:39:30.053Z,101266.94
2022-10-18T03:41:56.668Z,101254.69
2022-10-18T03:44:23.206Z,101251.47
2022-10-18T03:46:49.842Z,101239.50
2022-10-18T03:49:16.376Z,101255.88
2022-10-18T03:51:42.951Z,101259.50
2022-10-18T03:54:09.640Z,101265.03
2022-10-18T03:56:36.340Z,101253.81
2022-10-18T03:59:04.617Z,101238.47
2022-10-18T04:01:31.565Z,101251.84
2022-10-18T04:03:58.148Z,101244.31
2022-10-18T04:06:24.705Z,101243.53
2022-10-18T04:08:51.298Z,101257.00
2022-10-18T04:11:17.959Z,101236.66
2022-10-18T04:13:44.610Z,101208.78
2022-10-18T04:16:11.216Z,101215.63
2022-10-18T04:18:37.894Z,101217.66
2022-10-18T04:21:04.629Z,101203.06
2022-10-18T04:23:33.798Z,101232.00
2022-10-18T04:26:03.040Z,101234.75
2022-10-18T04:28:29.730Z,101268.59
2022-10-18T04:30:56.506Z,101290.13
2022-10-18T04:33:23.480Z,101312.59
2022-10-18T04:35:52.222Z,101281.66
2022-10-18T04:38:19.902Z,101254.28
2022-10-18T04:40:46.814Z,101268.44
2022-10-18T04:43:13.455Z,101288.25
2022-10-18T04:45:39.998Z,101282.22
2022-10-18T04:48:06.952Z,101277.72
2022-10-18T04:50:33.663Z,101289.28
2022-10-18T04:53:00.237Z,101291.09
2022-10-18T04:55:26.760Z,101275.31
2022-10-18T04:57:53.719Z,101270.66
2022-10-18T05:00:20.471Z,101279.38
2022-10-18T05:02:47.007Z,101267.75
2022-10-18T05:05:14.294Z,101278.59
2022-10-18T05:07:41.480Z,101274.13
2022-10-18T05:10:08.596Z,101274.03
2022-10-18T05:12:35.233Z,101262.44
2022-10-18T05:15:02.138Z,101264.47
2022-10-18T05:17:28.653Z,101272.47
2022-10-18T05:19:55.215Z,101262.91
2022-10-18T05:22:21.749Z,101240.88
2022-10-18T05:24:48.378Z,101255.84
2022-10-18T05:27:15.307Z,101240.56
2022-10-18T05:29:42.140Z,101255.31
2022-10-18T05:32:08.893Z,101232.03
2022-10-18T05:34:36.177Z,101228.59
2022-10-18T05:37:03.079Z,101236.88
2022-10-18T05:39:29.714Z,101241.25
2022-10-18T05:41:56.638Z,101236.88
2022-10-18T05:44:23.199Z,101226.34
2022-10-18T05:46:49.871Z,101224.09
2022-10-18T05:49:16.597Z,101227.56
2022-10-18T05:51:43.263Z,101219.47
2022-10-18T05:54:11.863Z,101237.09
2022-10-18T05:59:10.173Z,101221.56
2022-10-18T06:01:37.274Z,101223.38
2022-10-18T06:04:03.950Z,101200.88
2022-10-18T06:06:31.211Z,101236.88
2022-10-18T06:08:58.351Z,101243.38
2022-10-18T06:11:25.065Z,101274.88
2022-10-18T06:13:52.549Z,101298.03
2022-10-18T06:16:28.523Z,101280.28
2022-10-18T06:18:57.921Z,101281.88
2022-10-18T06:21:24.917Z,101288.94
2022-10-18T06:23:53.069Z,101275.66
2022-10-18T06:26:20.456Z,101269.84
2022-10-18T06:28:47.169Z,101269.75
2022-10-18T06:31:14.819Z,101271.63
2022-10-18T06:33:41.773Z,101260.44
2022-10-18T06:36:12.265Z,101259.41
2022-10-18T06:38:38.710Z,101262.47
2022-10-18T06:41:06.256Z,101259.56
2022-10-18T06:43:33.502Z,101270.13
2022-10-18T06:46:02.611Z,101282.88
2022-10-18T06:48:29.280Z,101294.63
2022-10-18T06:51:01.630Z,101285.13
2022-10-18T06:53:30.864Z,101275.50
2022-10-18T06:56:07.528Z,101296.53
2022-10-18T06:58:35.559Z,101305.63
2022-10-18T07:01:14.069Z,101324.16
2022-10-18T07:03:40.720Z,101336.63
2022-10-18T07:06:09.908Z,101333.34
2022-10-18T07:08:36.994Z,101336.03
2022-10-18T07:11:04.589Z,101319.44
2022-10-18T07:13:33.446Z,101315.44
2022-10-18T07:16:17.303Z,101308.13
2022-10-18T07:18:49.451Z,101307.81
2022-10-18T07:21:22.119Z,101289.06
2022-10-18T07:23:49.486Z,101296.50
2022-10-18T07:26:19.187Z,101312.22
2022-10-18T07:28:48.550Z,101319.91
2022-10-18T07:31:15.854Z,101324.69
2022-10-18T07:33:45.753Z,101326.66
2022-10-18T07:36:13.617Z,101346.13
2022-10-18T07:38:40.628Z,101331.84
2022-10-18T07:41:08.530Z,101333.09
2022-10-18T07:43:36.073Z,101343.63
2022-10-18T07:46:06.067Z,101339.38
2022-10-18T07:48:32.911Z,101343.13
2022-10-18T07:51:00.811Z,101352.56
2022-10-18T07:53:31.011Z,101351.84
2022-10-18T07:55:59.418Z,101349.81
2022-10-18T07:58:26.209Z,101341.38
2022-10-18T08:00:53.339Z,101334.78
2022-10-18T08:03:20.121Z,101333.06
2022-10-18T08:05:54.141Z,101334.94
2022-10-18T08:08:22.614Z,101341.69
2022-10-18T08:10:49.365Z,101339.38
2022-10-18T08:13:16.828Z,101350.34
2022-10-18T08:15:43.505Z,101347.09
2022-10-18T08:18:10.690Z,101343.88
2022-10-18T08:20:37.656Z,101360.06
2022-10-18T08:23:05.164Z,101349.31
2022-10-18T08:25:31.780Z,101349.06
2022-10-18T08:28:01.299Z,101356.41
2022-10-18T08:30:27.949Z,101362.78
2022-10-18T08:32:54.522Z,101357.25
2022-10-18T08:35:21.099Z,101372.34
2022-10-18T08:37:48.697Z,101375.94
2022-10-18T08:40:16.021Z,101372.41
2022-10-18T08:43:07.187Z,101370.69
2022-10-18T08:45:42.498Z,101377.75
2022-10-18T08:48:21.855Z,101377.59
2022-10-18T08:50:50.917Z,101389.69
2022-10-18T08:53:20.809Z,101370.28
2022-10-18T08:55:58.416Z,101353.09
2022-10-18T08:58:29.627Z,101375.97
2022-10-18T09:00:58.859Z,101370.13
2022-10-18T09:03:54.793Z,101375.97
2022-10-18T09:06:51.856Z,101375.75
2022-10-18T09:09:27.448Z,101373.84
2022-10-18T09:12:30.472Z,101387.03
2022-10-18T09:15:22.107Z,101382.56
2022-10-18T09:18:04.127Z,101376.16
2022-10-18T09:20:53.218Z,101381.66
2022-10-18T09:23:46.568Z,101380.75
2022-10-18T09:26:22.117Z,101380.19
2022-10-18T09:29:13.737Z,101389.59
2022-10-18T09:32:04.720Z,101388.63
2022-10-18T09:34:34.116Z,101387.59
2022-10-18T09:37:01.410Z,101391.16
2022-10-18T09:39:35.297Z,101393.22
2022-10-18T09:42:14.443Z,101381.00
2022-10-18T09:45:08.204Z,101395.88
2022-10-18T09:47:43.903Z,101399.84
2022-10-18T09:50:32.496Z,101392.00
2022-10-18T09:53:13.643Z,101389.53
2022-10-18T09:56:00.482Z,101389.22
2022-10-18T09:58:39.105Z,101384.88
2022-10-18T10:01:06.446Z,101382.59
2022-10-18T10:03:34.281Z,101371.78
2022-10-18T10:06:13.161Z,101379.50
2022-10-18T10:08:47.632Z,101384.81
2022-10-18T10:11:31.826Z,101386.16
2022-10-18T10:14:08.429Z,101391.69
2022-10-18T10:16:44.650Z,101406.63
2022-10-18T10:19:17.548Z,101408.91
2022-10-18T10:21:44.355Z,101414.19
2022-10-18T10:24:22.778Z,101418.38
2022-10-18T10:26:50.418Z,101416.44
2022-10-18T10:29:47.467Z,101429.69
2022-10-18T10:32:17.141Z,101426.28
2022-10-18T10:34:44.925Z,101411.47
2022-10-18T10:37:32.287Z,101419.53
2022-10-18T10:40:17.734Z,101420.13
2022-10-18T10:43:12.713Z,101406.38
2022-10-18T10:46:00.847Z,101416.75
2022-10-18T10:48:33.146Z,101422.59
2022-10-18T10:51:07.445Z,101423.06
2022-10-18T10:53:50.814Z,101424.97
2022-10-18T10:56:25.106Z,101425.50
2022-10-18T10:58:53.960Z,101430.56
2022-10-18T11:01:24.478Z,101425.88
2022-10-18T11:03:51.772Z,101431.72
2022-10-18T11:06:36.892Z,101427.41
2022-10-18T11:09:12.461Z,101426.63
2022-10-18T11:11:49.574Z,101424.38
2022-10-18T11:14:28.101Z,101425.50
2022-10-18T11:17:16.297Z,101414.09
2022-10-18T11:20:19.904Z,101419.19
2022-10-18T11:23:10.922Z,101415.16
2022-10-18T11:26:01.623Z,101422.81
2022-10-18T11:28:37.004Z,101422.53
2022-10-18T11:31:22.425Z,101416.13
2022-10-18T11:34:11.513Z,101426.47
2022-10-18T11:37:27.258Z,101413.91
2022-10-18T11:40:18.238Z,101428.97
2022-10-18T11:43:01.632Z,101419.47
2022-10-18T11:45:57.550Z,101429.31
2022-10-18T11:48:45.910Z,101423.78
2022-10-18T11:51:33.963Z,101423.41
2022-10-18T11:54:36.851Z,101404.44
2022-10-18T11:57:21.636Z,101406.66
2022-10-18T12:02:56.150Z,101410.16
2022-10-18T12:05:25.243Z,101402.13
2022-10-18T12:08:25.601Z,101393.50
2022-10-18T12:11:05.563Z,101398.75
2022-10-18T12:13:38.545Z,101405.34
2022-10-18T12:16:07.879Z,101401.88
2022-10-18T12:18:40.813Z,101402.41
2022-10-18T12:21:07.946Z,101396.19
2022-10-18T12:23:53.632Z,101383.00
2022-10-18T12:26:21.510Z,101401.25
2022-10-18T12:29:02.860Z,101399.63
2022-10-18T12:31:45.528Z,101369.78
2022-10-18T12:34:29.089Z,101397.28
2022-10-18T12:37:24.508Z,101379.34
2022-10-18T12:40:18.590Z,101373.72
2022-10-18T12:42:49.056Z,101365.56
2022-10-18T12:45:27.988Z,101390.56
2022-10-18T12:47:59.408Z,101364.13
2022-10-18T12:50:42.097Z,101392.28
2022-10-18T12:53:26.698Z,101385.66
2022-10-18T12:55:54.667Z,101381.22
2022-10-18T12:58:21.157Z,101387.75
2022-10-18T13:00:48.030Z,101369.75
2022-10-18T13:03:17.295Z,101389.19
2022-10-18T13:05:54.975Z,101371.97
2022-10-18T13:08:30.681Z,101390.75
2022-10-18T13:11:12.349Z,101374.47
2022-10-18T13:14:00.748Z,101373.13
2022-10-18T13:16:36.251Z,101388.94
2022-10-18T13:19:25.189Z,101401.19
2022-10-18T13:22:21.645Z,101402.69
2022-10-18T13:25:20.574Z,101393.25
2022-10-18T13:28:18.037Z,101387.38
2022-10-18T13:31:09.855Z,101389.41
2022-10-18T13:33:39.439Z,101396.19
2022-10-18T13:36:23.060Z,101380.31
2022-10-18T13:38:50.514Z,101376.47
2022-10-18T13:41:32.718Z,101375.34
2022-10-18T13:44:37.412Z,101391.69
2022-10-18T13:47:03.949Z,101393.91
2022-10-18T13:49:39.494Z,101391.59
2022-10-18T13:52:18.213Z,101397.16
2022-10-18T13:55:06.220Z,101401.75
2022-10-18T13:58:10.703Z,101407.22
2022-10-18T14:01:04.918Z,101401.28
2022-10-18T14:04:04.841Z,101401.47
2022-10-18T14:06:38.647Z,101378.59
2022-10-18T14:09:44.453Z,101402.69
2022-10-18T14:12:23.004Z,101393.78
2022-10-18T14:14:59.730Z,101400.03
2022-10-18T14:17:44.831Z,101392.09
2022-10-18T14:20:28.742Z,101392.09
2022-10-18T14:23:28.982Z,101396.28
2022-10-18T14:26:16.173Z,101402.78
2022-10-18T14:29:00.208Z,101400.59
2022-10-18T14:31:28.124Z,101397.22
2022-10-18T14:33:58.408Z,101378.25
2022-10-18T14:36:27.967Z,101387.69
2022-10-18T14:38:57.550Z,101402.56
2022-10-18T14:41:29.756Z,101395.50
2022-10-18T14:44:17.595Z,101391.72
2022-10-18T14:46:46.613Z,101392.03
2022-10-18T14:49:14.365Z,101407.88
2022-10-18T14:51:43.213Z,101409.22
2022-10-18T14:54:30.638Z,101408.66
2022-10-18T14:57:00.047Z,101416.22
2022-10-18T14:59:47.004Z,101409.78
2022-10-18T15:02:31.885Z,101377.63
2022-10-18T15:05:20.619Z,101417.66
2022-10-18T15:07:48.261Z,101394.69
2022-10-18T15:10:18.563Z,101406.16
2022-10-18T15:13:08.270Z,101420.44
2022-10-18T15:15:34.713Z,101419.88
2022-10-18T15:18:01.811Z,101412.09
2022-10-18T15:20:34.397Z,101420.13
2022-10-18T15:23:23.267Z,101417.38
2022-10-18T15:25:52.243Z,101417.38
2022-10-18T15:28:29.796Z,101413.47
2022-10-18T15:30:58.371Z,101420.91
2022-10-18T15:33:27.596Z,101419.72
2022-10-18T15:35:54.813Z,101423.19
2022-10-18T15:38:21.297Z,101413.41
2022-10-18T15:40:48.068Z,101402.31
2022-10-18T15:43:23.758Z,101413.63
2022-10-18T15:45:58.702Z,101415.72
2022-10-18T15:48:40.466Z,101425.50
2022-10-18T15:51:09.195Z,101421.00
2022-10-18T15:53:43.354Z,101413.91
2022-10-18T15:56:27.905Z,101414.78
2022-10-18T15:58:57.132Z,101430.44
2022-10-18T16:01:25.700Z,101419.00
2022-10-18T16:03:52.567Z,101414.09
2022-10-18T16:06:19.152Z,101423.94
2022-10-18T16:08:50.096Z,101424.34
2022-10-18T16:11:22.331Z,101418.28
2022-10-18T16:13:49.770Z,101392.50
2022-10-18T16:16:22.186Z,101413.47
2022-10-18T16:18:49.651Z,101405.88
2022-10-18T16:21:22.194Z,101396.78
2022-10-18T16:23:49.531Z,101394.53
2022-10-18T16:26:18.564Z,101416.56
2022-10-18T16:28:45.794Z,101422.09
2022-10-18T16:31:19.694Z,101399.84
2022-10-18T16:33:46.934Z,101421.66
2022-10-18T16:36:16.551Z,101421.19
2022-10-18T16:38:44.398Z,101431.19
2022-10-18T16:41:13.229Z,101436.81
2022-10-18T16:43:40.121Z,101411.22
2022-10-18T16:46:08.014Z,101430.53
2022-10-18T16:48:34.751Z,101437.78
2022-10-18T16:51:01.930Z,101441.59
2022-10-18T16:53:28.824Z,101421.41
2022-10-18T16:55:58.739Z,101439.78
2022-10-18T16:58:26.329Z,101457.47
2022-10-18T17:00:52.931Z,101458.53
2022-10-18T17:03:19.670Z,101445.06
2022-10-18T17:05:46.521Z,101457.97
2022-10-18T17:08:21.994Z,101459.09
2022-10-18T17:10:50.343Z,101447.16
2022-10-18T17:13:17.126Z,101455.50
2022-10-18T17:15:43.948Z,101470.44
2022-10-18T17:18:30.763Z,101477.59
2022-10-18T17:21:00.776Z,101481.38
2022-10-18T17:23:27.251Z,101466.19
2022-10-18T17:26:05.263Z,101469.63
2022-10-18T17:28:36.491Z,101482.22
2022-10-18T17:31:06.492Z,101453.03
2022-10-18T17:33:33.092Z,101487.91
2022-10-18T17:35:59.686Z,101493.41
2022-10-18T17:38:26.326Z,101481.50
2022-10-18T17:40:53.429Z,101470.56
2022-10-18T17:43:20.304Z,101494.94
2022-10-18T17:45:48.649Z,101484.56
2022-10-18T17:48:15.235Z,101476.09
2022-10-18T17:50:41.819Z,101489.81
2022-10-18T17:53:09.690Z,101470.19
2022-10-18T17:55:36.444Z,101491.88
2022-10-18T17:58:03.280Z,101490.41
2022-10-18T18:00:29.828Z,101489.75
2022-10-18T18:03:00.204Z,101492.28
2022-10-18T18:05:30.140Z,101493.16
2022-10-18T18:08:02.741Z,101496.69
2022-10-18T18:10:33.147Z,101495.97
2022-10-18T18:13:00.041Z,101487.97
2022-10-18T18:15:26.669Z,101476.72
2022-10-18T18:17:56.991Z,101496.69
2022-10-18T18:20:24.484Z,101493.94
2022-10-18T18:22:52.189Z,101496.53
2022-10-18T18:25:18.920Z,101493.94
2022-10-18T18:27:45.797Z,101492.44
2022-10-18T18:30:12.538Z,101452.78
2022-10-18T18:32:39.130Z,101491.88
2022-10-18T18:35:05.994Z,101485.84
2022-10-18T18:37:32.793Z,101461.97
2022-10-18T18:39:59.324Z,101490.63
2022-10-18T18:42:25.888Z,101486.53
2022-10-18T18:44:52.467Z,101476.13
2022-10-18T18:47:21.715Z,101485.94
2022-10-18T18:49:48.591Z,101470.66
2022-10-18T18:52:15.440Z,101493.22
2022-10-18T18:54:42.077Z,101498.56
2022-10-18T18:57:10.121Z,101470.94
2022-10-18T18:59:36.789Z,101490.16
2022-10-18T19:02:03.327Z,101473.84
2022-10-18T19:04:30.021Z,101467.25
2022-10-18T19:06:56.535Z,101493.16
2022-10-18T19:09:23.878Z,101493.16
2022-10-18T19:11:53.314Z,101487.97
2022-10-18T19:16:49.084Z,101476.41
2022-10-18T19:19:23.252Z,101503.44
2022-10-18T19:21:55.258Z,101512.31
2022-10-18T19:24:23.781Z,101505.97
2022-10-18T19:26:55.470Z,101504.31
2022-10-18T19:29:23.657Z,101488.81
2022-10-18T19:31:51.984Z,101503.53
2022-10-18T19:34:20.214Z,101506.25
2022-10-18T19:36:48.089Z,101493.22
2022-10-18T19:39:35.336Z,101506.34
2022-10-18T19:42:05.251Z,101502.72
2022-10-18T19:44:33.941Z,101483.72
2022-10-18T19:47:00.821Z,101493.78
2022-10-18T19:49:28.680Z,101489.47
2022-10-18T19:51:56.565Z,101492.06
2022-10-18T19:54:23.313Z,101492.13
2022-10-18T19:56:49.916Z,101480.25
2022-10-18T19:59:17.864Z,101494.16
2022-10-18T20:01:45.404Z,101506.69
2022-10-18T20:04:13.577Z,101498.00
2022-10-18T20:06:40.920Z,101507.75
2022-10-18T20:09:09.156Z,101504.34
2022-10-18T20:11:36.681Z,101512.13
2022-10-18T20:14:05.448Z,101506.47
2022-10-18T20:16:33.325Z,101509.94
2022-10-18T20:19:05.505Z,101507.19
2022-10-18T20:21:35.951Z,101511.53
2022-10-18T20:24:04.541Z,101512.47
2022-10-18T20:26:31.457Z,101509.06
2022-10-18T20:28:59.682Z,101514.56
2022-10-18T20:31:29.531Z,101507.50
2022-10-18T20:34:01.663Z,101509.38
2022-10-18T20:36:30.154Z,101508.44
2022-10-18T20:38:57.834Z,101505.00
2022-10-18T20:41:29.967Z,101515.88
2022-10-18T20:43:59.881Z,101517.03
2022-10-18T20:46:29.992Z,101480.63
2022-10-18T20:48:56.994Z,101473.81
2022-10-18T20:51:23.942Z,101500.69
2022-10-18T20:53:51.273Z,101499.16
2022-10-18T20:56:20.730Z,101499.31
2022-10-18T20:58:49.662Z,101486.00
2022-10-18T21:01:19.917Z,101476.81
2022-10-18T21:03:47.814Z,101483.19
2022-10-18T21:06:22.804Z,101505.06
2022-10-18T21:08:59.943Z,101482.88
2022-10-18T21:11:28.040Z,101483.66
2022-10-18T21:13:57.579Z,101478.41
2022-10-18T21:16:24.134Z,101503.66
2022-10-18T21:18:50.723Z,101499.25
2022-10-18T21:21:20.463Z,101509.91
2022-10-18T21:23:47.734Z,101500.31
2022-10-18T21:26:23.146Z,101507.50
2022-10-18T21:28:54.349Z,101512.03
2022-10-18T21:31:23.113Z,101509.50
2022-10-18T21:33:54.194Z,101507.88
2022-10-18T21:36:21.339Z,101506.28
2022-10-18T21:38:48.106Z,101504.59
2022-10-18T21:41:17.032Z,101503.78
2022-10-18T21:43:47.512Z,101469.97
2022-10-18T21:46:15.486Z,101496.00
2022-10-18T21:48:46.855Z,101477.97
2022-10-18T21:51:15.653Z,101483.03
2022-10-18T21:53:43.981Z,101493.41
2022-10-18T21:56:16.359Z,101493.56
2022-10-18T21:58:44.156Z,101472.25
2022-10-18T22:01:15.845Z,101495.81
2022-10-18T22:03:43.077Z,101487.38
2022-10-18T22:06:16.604Z,101496.16
2022-10-18T22:08:51.849Z,101498.88
2022-10-18T22:11:20.598Z,101471.06
2022-10-18T22:13:47.511Z,101472.00
2022-10-18T22:16:15.679Z,101493.81
2022-10-18T22:18:42.545Z,101487.84
2022-10-18T22:21:11.817Z,101492.50
2022-10-18T22:23:41.826Z,101461.56
2022-10-18T22:26:13.438Z,101485.91
2022-10-18T22:28:41.595Z,101481.91
2022-10-18T22:31:15.265Z,101468.06
2022-10-18T22:33:41.818Z,101483.78
2022-10-18T22:36:08.403Z,101498.88
2022-10-18T22:38:35.413Z,101491.22
2022-10-18T22:41:10.495Z,101486.75
2022-10-18T22:43:38.117Z,101459.81
2022-10-18T22:46:07.076Z,101461.03
2022-10-18T22:48:34.367Z,101487.16
2022-10-18T22:51:01.377Z,101480.34
2022-10-18T22:53:28.122Z,101452.53
2022-10-18T22:55:55.128Z,101485.59
2022-10-18T22:58:22.147Z,101478.78
2022-10-18T23:00:48.951Z,101475.41
2022-10-18T23:03:16.865Z,101466.75
2022-10-18T23:05:45.773Z,101475.41
2022-10-18T23:08:14.329Z,101456.34
2022-10-18T23:10:42.366Z,101473.81
2022-10-18T23:13:09.626Z,101486.34
2022-10-18T23:15:38.948Z,101489.13
2022-10-18T23:18:05.700Z,101490.00
2022-10-18T23:20:32.256Z,101496.41
2022-10-18T23:22:58.759Z,101474.50
2022-10-18T23:25:25.553Z,101469.25
2022-10-18T23:27:52.193Z,101489.28
2022-10-18T23:30:18.838Z,101473.66
2022-10-18T23:32:45.410Z,101503.31
2022-10-18T23:35:11.884Z,101498.78
2022-10-18T23:37:38.458Z,101472.91
2022-10-18T23:40:05.411Z,101467.72
2022-10-18T23:42:31.921Z,101495.59
2022-10-18T23:44:58.463Z,101501.78
2022-10-18T23:47:25.008Z,101500.03
2022-10-18T23:49:51.529Z,101494.44
2022-10-18T23:52:18.058Z,101506.44
2022-10-18T23:57:10.989Z,101510.13
2022-10-18T23:59:37.528Z,101463.25
